createdAt,value
2022-08-11T00:02:24.119Z,3.28
2022-08-11T00:04:51.258Z,3.88
2022-08-11T00:07:19.330Z,2.88
2022-08-11T00:09:47.393Z,2.67
2022-08-11T00:12:17.053Z,4.22
2022-08-11T00:14:44.768Z,3.67
2022-08-11T00:17:14.815Z,3.72
2022-08-11T00:20:15.435Z,3.42
2022-08-11T00:22:33.764Z,4.43
2022-08-11T00:25:10.203Z,6.22
2022-08-11T00:27:39.547Z,6.30
2022-08-11T00:30:08.996Z,3.45
2022-08-11T00:32:40.989Z,3.85
2022-08-11T00:35:56.295Z,5.43
2022-08-11T00:38:02.248Z,6.20
2022-08-11T00:40:39.471Z,4.72
2022-08-11T00:43:20.886Z,4.00
2022-08-11T00:46:18.882Z,4.20
2022-08-11T00:48:59.525Z,4.78
2022-08-11T00:52:05.107Z,2.58
2022-08-11T00:55:03.854Z,4.03
2022-08-11T00:58:00.189Z,4.93
2022-08-11T01:00:33.714Z,5.72
2022-08-11T01:03:24.672Z,5.53
2022-08-11T01:06:23.088Z,3.78
2022-08-11T01:09:05.890Z,6.15
2022-08-11T01:11:56.024Z,3.13
2022-08-11T01:14:41.823Z,3.55
2022-08-11T01:17:26.589Z,3.67
2022-08-11T01:20:46.457Z,2.72
2022-08-11T01:23:36.876Z,3.10
2022-08-11T01:26:31.376Z,3.00
2022-08-11T01:29:07.274Z,4.45
2022-08-11T01:32:01.536Z,4.60
2022-08-11T01:34:28.139Z,4.30
2022-08-11T01:36:56.730Z,2.75
2022-08-11T01:39:42.277Z,3.03
2022-08-11T01:43:05.129Z,8.82
2022-08-11T01:45:56.097Z,5.30
2022-08-11T01:48:38.113Z,2.90
2022-08-11T01:53:49.928Z,3.95
2022-08-11T01:56:33.819Z,6.40
2022-08-11T01:59:34.438Z,5.10
2022-08-11T02:02:46.104Z,2.70
2022-08-11T02:05:37.335Z,8.40
2022-08-11T02:08:11.738Z,3.55
2022-08-11T02:11:14.047Z,6.35
2022-08-11T02:16:58.282Z,4.55
2022-08-11T02:20:11.044Z,2.80
2022-08-11T02:23:05.497Z,3.47
2022-08-11T02:25:47.388Z,5.15
2022-08-11T02:28:16.879Z,3.92
2022-08-11T02:32:11.001Z,5.10
2022-08-11T02:34:59.444Z,4.13
2022-08-11T02:37:33.060Z,6.95
2022-08-11T02:40:03.246Z,5.68
2022-08-11T02:42:42.233Z,2.38
2022-08-11T02:45:30.657Z,3.38
2022-08-11T02:48:38.227Z,4.97
2022-08-11T02:51:29.421Z,7.80
2022-08-11T02:54:11.961Z,5.90
2022-08-11T02:57:11.212Z,4.97
2022-08-11T02:59:54.294Z,3.78
2022-08-11T03:02:40.710Z,8.57
2022-08-11T03:05:21.036Z,5.00
2022-08-11T03:08:07.682Z,5.85
2022-08-11T03:11:36.103Z,4.53
2022-08-11T03:14:45.890Z,4.88
2022-08-11T03:17:18.035Z,5.53
2022-08-11T03:20:00.431Z,6.82
2022-08-11T03:22:38.030Z,6.18
2022-08-11T03:25:35.462Z,5.35
2022-08-11T03:28:10.094Z,5.60
2022-08-11T03:30:42.813Z,7.70
2022-08-11T03:33:40.178Z,4.88
2022-08-11T03:37:15.000Z,4.88
2022-08-11T03:39:51.097Z,4.47
2022-08-11T03:42:45.406Z,9.13
2022-08-11T03:45:24.078Z,6.93
2022-08-11T03:48:15.659Z,4.72
2022-08-11T03:50:51.860Z,6.93
2022-08-11T03:53:33.403Z,4.65
2022-08-11T03:56:24.712Z,4.03
2022-08-11T03:59:34.846Z,4.30
2022-08-11T04:02:22.965Z,6.60
2022-08-11T04:05:11.425Z,6.40
2022-08-11T04:07:56.271Z,5.38
2022-08-11T04:10:46.287Z,6.43
2022-08-11T04:13:15.604Z,5.57
2022-08-11T04:16:11.975Z,5.75
2022-08-11T04:18:44.865Z,5.53
2022-08-11T04:21:48.939Z,8.30
2022-08-11T04:24:50.466Z,8.57
2022-08-11T04:27:54.759Z,9.15
2022-08-11T04:30:45.909Z,8.43
2022-08-11T04:33:34.411Z,6.57
2022-08-11T04:36:49.568Z,7.47
2022-08-11T04:39:34.721Z,5.93
2022-08-11T04:42:44.236Z,10.10
2022-08-11T04:45:22.999Z,6.15
2022-08-11T04:48:37.692Z,7.53
2022-08-11T04:51:41.795Z,7.28
2022-08-11T04:54:50.576Z,6.25
2022-08-11T04:57:44.363Z,5.68
2022-08-11T05:00:32.813Z,10.57
2022-08-11T05:03:15.613Z,6.45
2022-08-11T05:06:00.696Z,10.15
2022-08-11T05:08:59.444Z,14.80
2022-08-11T05:11:45.178Z,5.22
2022-08-11T05:14:30.089Z,7.50
2022-08-11T05:17:27.478Z,5.70
2022-08-11T05:20:13.065Z,6.30
2022-08-11T05:23:06.248Z,7.18
2022-08-11T05:26:43.387Z,6.15
2022-08-11T05:29:19.996Z,9.70
2022-08-11T05:32:15.514Z,7.03
2022-08-11T05:34:54.504Z,6.95
2022-08-11T05:37:27.078Z,8.50
2022-08-11T05:40:18.631Z,9.63
2022-08-11T05:43:17.496Z,10.70
2022-08-11T05:46:07.156Z,5.85
2022-08-11T05:48:55.720Z,10.00
2022-08-11T05:51:55.240Z,9.45
2022-08-11T05:54:42.826Z,9.38
2022-08-11T05:57:49.575Z,8.68
2022-08-11T06:00:11.887Z,6.65
2022-08-11T06:02:52.202Z,7.10
2022-08-11T06:05:19.684Z,7.72
2022-08-11T06:07:48.705Z,5.75
2022-08-11T06:10:27.664Z,6.65
2022-08-11T06:12:56.132Z,7.75
2022-08-11T06:15:25.873Z,8.55
2022-08-11T06:17:54.102Z,6.97
2022-08-11T06:20:22.651Z,8.18
2022-08-11T06:22:58.769Z,7.63
2022-08-11T06:25:36.303Z,7.53
2022-08-11T06:28:05.396Z,8.20
2022-08-11T06:30:35.353Z,8.48
2022-08-11T06:33:06.645Z,7.70
2022-08-11T06:35:48.356Z,8.38
2022-08-11T06:38:41.014Z,7.55
2022-08-11T06:41:30.888Z,6.90
2022-08-11T06:44:13.568Z,7.47
2022-08-11T06:46:43.339Z,13.02
2022-08-11T06:49:31.231Z,8.75
2022-08-11T06:52:07.055Z,7.32
2022-08-11T06:54:57.287Z,6.97
2022-08-11T06:57:43.192Z,4.05
2022-08-11T07:00:29.104Z,6.50
2022-08-11T07:03:09.215Z,4.57
2022-08-11T07:05:48.094Z,6.55
2022-08-11T07:08:44.465Z,5.53
2022-08-11T07:11:51.123Z,7.32
2022-08-11T07:14:41.787Z,4.50
2022-08-11T07:17:14.583Z,7.63
2022-08-11T07:20:06.439Z,6.47
2022-08-11T07:22:53.937Z,6.20
2022-08-11T07:25:41.656Z,9.60
2022-08-11T07:28:40.493Z,11.98
2022-08-11T07:31:15.003Z,9.60
2022-08-11T07:34:05.516Z,6.60
2022-08-11T07:36:38.731Z,7.72
2022-08-11T07:39:11.007Z,7.45
2022-08-11T07:41:39.156Z,4.55
2022-08-11T07:44:09.916Z,5.13
2022-08-11T07:46:59.948Z,4.65
2022-08-11T07:49:50.347Z,7.00
2022-08-11T07:52:27.381Z,3.72
2022-08-11T07:54:55.889Z,4.25
2022-08-11T07:58:13.959Z,5.07
2022-08-11T08:00:51.615Z,5.20
2022-08-11T08:03:38.376Z,6.95
2022-08-11T08:06:40.368Z,5.90
2022-08-11T08:09:27.028Z,6.97
2022-08-11T08:12:13.243Z,7.25
2022-08-11T08:14:58.627Z,5.80
2022-08-11T08:18:09.349Z,5.50
2022-08-11T08:20:45.038Z,5.40
2022-08-11T08:23:12.425Z,7.97
2022-08-11T08:25:41.399Z,3.88
2022-08-11T08:28:11.697Z,5.93
2022-08-11T08:30:47.789Z,5.20
2022-08-11T08:33:18.816Z,4.22
2022-08-11T08:35:55.897Z,8.75
2022-08-11T08:38:24.238Z,6.25
2022-08-11T08:40:55.814Z,6.88
2022-08-11T08:43:24.323Z,5.07
2022-08-11T08:45:55.802Z,5.65
2022-08-11T08:48:26.139Z,3.13
2022-08-11T08:51:22.152Z,6.47
2022-08-11T08:53:56.296Z,3.88
2022-08-11T08:56:29.189Z,4.47
2022-08-11T08:58:59.348Z,8.52
2022-08-11T09:01:33.543Z,5.87
2022-08-11T09:04:06.877Z,4.55
2022-08-11T09:06:43.092Z,5.22
2022-08-11T09:09:12.355Z,2.58
2022-08-11T09:14:52.916Z,4.22
2022-08-11T09:17:21.803Z,5.93
2022-08-11T09:19:56.505Z,7.03
2022-08-11T09:22:42.873Z,4.65
2022-08-11T09:25:28.231Z,7.47
2022-08-11T09:27:56.682Z,5.15
2022-08-11T09:30:28.385Z,4.38
2022-08-11T09:32:57.967Z,3.40
2022-08-11T09:35:30.648Z,2.67
2022-08-11T09:38:17.059Z,4.35
2022-08-11T09:40:56.151Z,4.35
2022-08-11T09:43:44.225Z,5.03
2022-08-11T09:46:11.663Z,6.85
2022-08-11T09:48:43.397Z,5.93
2022-08-11T09:51:13.404Z,3.75
2022-08-11T09:54:04.097Z,6.00
2022-08-11T09:56:50.257Z,3.10
2022-08-11T09:59:20.710Z,7.57
2022-08-11T10:01:50.677Z,2.33
2022-08-11T10:04:22.924Z,2.50
2022-08-11T10:07:05.383Z,1.45
2022-08-11T10:09:53.258Z,2.72
2022-08-11T10:12:37.293Z,5.38
2022-08-11T10:15:27.275Z,2.65
2022-08-11T10:18:17.279Z,5.35
2022-08-11T10:20:50.245Z,3.95
2022-08-11T10:23:36.355Z,4.10
2022-08-11T10:26:47.924Z,5.45
2022-08-11T10:29:37.437Z,4.90
2022-08-11T10:32:27.041Z,7.00
2022-08-11T10:35:00.815Z,5.47
2022-08-11T10:38:08.720Z,5.32
2022-08-11T10:40:23.546Z,3.42
2022-08-11T10:43:06.888Z,6.18
2022-08-11T10:45:54.935Z,3.80
2022-08-11T10:48:25.738Z,4.47
2022-08-11T10:51:12.427Z,3.35
2022-08-11T10:54:03.751Z,2.30
2022-08-11T10:59:17.282Z,4.40
2022-08-11T11:01:45.918Z,5.05
2022-08-11T11:04:12.538Z,2.17
2022-08-11T11:07:04.981Z,3.90
2022-08-11T11:09:33.148Z,3.65
2022-08-11T11:13:03.851Z,4.55
2022-08-11T11:15:54.555Z,2.40
2022-08-11T11:18:25.284Z,4.10
2022-08-11T11:20:57.856Z,2.35
2022-08-11T11:23:28.947Z,4.22
2022-08-11T11:26:27.551Z,1.88
2022-08-11T11:29:25.396Z,2.90
2022-08-11T11:32:18.696Z,3.60
2022-08-11T11:35:00.536Z,1.83
2022-08-11T11:37:33.173Z,2.42
2022-08-11T11:40:01.156Z,2.65
2022-08-11T11:42:29.535Z,2.30
2022-08-11T11:45:00.467Z,3.63
2022-08-11T11:47:30.266Z,4.28
2022-08-11T11:49:57.815Z,2.75
2022-08-11T11:52:25.204Z,2.97
2022-08-11T11:54:56.429Z,1.77
2022-08-11T11:57:43.239Z,2.13
2022-08-11T12:00:45.621Z,5.50
2022-08-11T12:03:13.403Z,1.73
2022-08-11T12:05:43.366Z,6.20
2022-08-11T12:08:23.397Z,4.32
2022-08-11T12:11:33.766Z,1.88
2022-08-11T12:14:04.689Z,1.20
2022-08-11T12:16:44.804Z,2.28
2022-08-11T12:19:17.737Z,2.13
2022-08-11T12:22:04.499Z,2.33
2022-08-11T12:24:52.659Z,6.75
2022-08-11T12:27:25.585Z,2.15
2022-08-11T12:29:58.181Z,1.65
2022-08-11T12:32:29.082Z,3.15
2022-08-11T12:34:58.022Z,1.80
2022-08-11T12:37:49.340Z,2.10
2022-08-11T12:41:12.015Z,2.70
2022-08-11T12:43:57.110Z,0.73
2022-08-11T12:46:29.270Z,10.82
2022-08-11T12:49:17.035Z,1.38
2022-08-11T12:52:14.885Z,4.05
2022-08-11T12:54:58.892Z,1.33
2022-08-11T12:57:50.483Z,0.75
2022-08-11T13:00:36.971Z,2.00
2022-08-11T13:03:25.121Z,2.35
2022-08-11T13:05:55.812Z,2.00
2022-08-11T13:08:25.151Z,1.08
2022-08-11T13:11:13.018Z,1.73
2022-08-11T13:13:54.660Z,2.15
2022-08-11T13:16:53.426Z,4.65
2022-08-11T13:19:22.134Z,2.78
2022-08-11T13:21:52.991Z,0.85
2022-08-11T13:24:23.527Z,1.73
2022-08-11T13:26:52.085Z,2.08
2022-08-11T13:29:27.704Z,1.17
2022-08-11T13:31:58.307Z,0.52
2022-08-11T13:34:27.101Z,1.55
2022-08-11T13:36:57.138Z,5.32
2022-08-11T13:39:26.945Z,2.55
2022-08-11T13:41:56.761Z,1.08
2022-08-11T13:44:30.169Z,2.17
2022-08-11T13:47:04.041Z,1.63
2022-08-11T13:49:33.267Z,2.22
2022-08-11T13:52:00.335Z,0.98
2022-08-11T13:54:41.152Z,1.88
2022-08-11T13:58:06.434Z,0.50
2022-08-11T14:02:56.994Z,4.10
2022-08-11T14:05:33.248Z,2.17
2022-08-11T14:08:03.395Z,5.03
2022-08-11T14:10:33.273Z,2.95
2022-08-11T14:13:26.293Z,1.73
2022-08-11T14:18:28.565Z,2.63
2022-08-11T14:21:17.004Z,6.40
2022-08-11T14:23:49.438Z,3.55
2022-08-11T14:26:27.064Z,1.23
2022-08-11T14:28:59.150Z,10.60
2022-08-11T14:31:28.570Z,2.15
2022-08-11T14:33:59.689Z,3.42
2022-08-11T14:36:40.406Z,0.80
2022-08-11T14:39:12.837Z,4.95
2022-08-11T14:42:10.575Z,2.33
2022-08-11T14:45:01.587Z,3.40
2022-08-11T14:47:31.762Z,3.80
2022-08-11T14:50:10.312Z,1.00
2022-08-11T14:52:47.881Z,6.82
2022-08-11T14:55:34.107Z,3.97
2022-08-11T14:58:02.300Z,1.52
2022-08-11T15:00:30.128Z,2.22
2022-08-11T15:03:11.870Z,2.65
2022-08-11T15:05:41.859Z,1.13
2022-08-11T15:08:48.041Z,2.08
2022-08-11T15:14:04.077Z,2.13
2022-08-11T15:16:50.807Z,0.93
2022-08-11T15:19:24.219Z,1.73
2022-08-11T15:22:09.545Z,2.30
2022-08-11T15:24:37.285Z,1.02
2022-08-11T15:27:33.249Z,1.52
2022-08-11T15:30:33.057Z,3.35
2022-08-11T15:33:24.160Z,0.80
2022-08-11T15:36:11.078Z,1.30
2022-08-11T15:38:44.007Z,0.93
2022-08-11T15:41:35.941Z,1.95
2022-08-11T15:44:44.604Z,2.30
2022-08-11T15:47:14.451Z,0.77
2022-08-11T15:50:11.755Z,0.65
2022-08-11T15:52:35.179Z,1.15
2022-08-11T15:55:08.704Z,1.42
2022-08-11T15:57:55.556Z,0.70
2022-08-11T16:00:41.938Z,2.00
2022-08-11T16:04:06.371Z,5.15
2022-08-11T16:06:17.100Z,2.00
2022-08-11T16:08:45.104Z,6.20
2022-08-11T16:11:13.630Z,2.97
2022-08-11T16:13:40.982Z,0.93
2022-08-11T16:16:15.281Z,1.88
2022-08-11T16:18:56.557Z,1.63
2022-08-11T16:21:36.513Z,1.58
2022-08-11T16:24:09.640Z,0.85
2022-08-11T16:27:08.535Z,0.65
2022-08-11T16:29:43.707Z,1.77
2022-08-11T16:32:20.380Z,0.90
2022-08-11T16:35:12.125Z,0.82
2022-08-11T16:37:58.963Z,1.30
2022-08-11T16:40:26.706Z,2.40
2022-08-11T16:43:13.493Z,1.00
2022-08-11T16:46:00.841Z,1.48
2022-08-11T16:48:36.035Z,0.40
2022-08-11T16:51:07.284Z,1.42
2022-08-11T16:53:54.659Z,1.90
2022-08-11T16:56:26.155Z,0.45
2022-08-11T16:59:15.192Z,0.57
2022-08-11T17:01:46.052Z,2.03
2022-08-11T17:05:10.418Z,1.77
2022-08-11T17:07:58.154Z,2.70
2022-08-11T17:11:03.805Z,0.75
2022-08-11T17:13:40.301Z,1.02
2022-08-11T17:16:14.299Z,1.95
2022-08-11T17:19:06.918Z,0.73
2022-08-11T17:21:58.796Z,0.40
2022-08-11T17:24:27.895Z,1.00
2022-08-11T17:26:59.220Z,0.82
2022-08-11T17:29:53.876Z,1.58
2022-08-11T17:33:02.499Z,0.90
2022-08-11T17:35:33.147Z,0.70
2022-08-11T17:41:18.618Z,0.57
2022-08-11T17:44:10.553Z,1.92
2022-08-11T17:47:02.220Z,3.00
2022-08-11T17:49:37.492Z,1.80
2022-08-11T17:52:25.514Z,1.92
2022-08-11T17:55:13.967Z,0.55
2022-08-11T17:58:00.699Z,1.77
2022-08-11T18:00:28.291Z,1.05
2022-08-11T18:03:16.087Z,2.83
2022-08-11T18:05:46.020Z,1.48
2022-08-11T18:08:36.939Z,1.30
2022-08-11T18:12:06.080Z,1.25
2022-08-11T18:14:33.216Z,1.75
2022-08-11T18:17:19.051Z,0.55
2022-08-11T18:20:04.127Z,2.75
2022-08-11T18:22:54.891Z,2.45
2022-08-11T18:25:45.472Z,1.52
2022-08-11T18:28:33.713Z,1.02
2022-08-11T18:31:21.600Z,2.45
2022-08-11T18:34:12.385Z,1.55
2022-08-11T18:37:02.526Z,1.80
2022-08-11T18:39:54.600Z,1.35
2022-08-11T18:42:43.358Z,1.83
2022-08-11T18:45:33.047Z,2.17
2022-08-11T18:48:34.211Z,1.10
2022-08-11T18:51:30.824Z,1.30
2022-08-11T18:54:27.756Z,1.20
2022-08-11T18:57:16.512Z,1.20
2022-08-11T19:00:03.299Z,2.75
2022-08-11T19:02:50.718Z,4.32
2022-08-11T19:06:32.509Z,3.38
2022-08-11T19:08:50.183Z,0.80
2022-08-11T19:11:42.446Z,1.25
2022-08-11T19:14:33.447Z,0.57
2022-08-11T19:17:43.442Z,2.38
2022-08-11T19:20:36.791Z,0.52
2022-08-11T19:23:24.529Z,1.65
2022-08-11T19:26:11.238Z,2.05
2022-08-11T19:29:00.173Z,1.42
2022-08-11T19:31:47.440Z,1.67
2022-08-11T19:34:35.620Z,1.65
2022-08-11T19:37:25.102Z,0.85
2022-08-11T19:40:13.236Z,1.40
2022-08-11T19:43:01.009Z,2.20
2022-08-11T19:45:51.206Z,1.88
2022-08-11T19:48:43.270Z,0.68
2022-08-11T19:51:30.145Z,1.70
2022-08-11T19:54:16.805Z,0.40
2022-08-11T19:57:04.144Z,1.05
2022-08-11T19:59:50.846Z,2.28
2022-08-11T20:02:36.402Z,2.83
2022-08-11T20:05:23.293Z,2.58
2022-08-11T20:08:10.399Z,2.58
2022-08-11T20:10:56.966Z,1.90
2022-08-11T20:13:45.720Z,2.88
2022-08-11T20:16:34.213Z,2.70
2022-08-11T20:19:26.035Z,4.00
2022-08-11T20:22:27.753Z,2.95
2022-08-11T20:25:14.226Z,2.17
2022-08-11T20:28:02.419Z,6.28
2022-08-11T20:30:51.856Z,2.22
2022-08-11T20:33:38.599Z,4.78
2022-08-11T20:36:24.900Z,1.10
2022-08-11T20:39:11.856Z,2.05
2022-08-11T20:41:59.725Z,1.77
2022-08-11T20:44:47.995Z,1.08
2022-08-11T20:47:59.135Z,1.35
2022-08-11T20:50:46.027Z,2.28
2022-08-11T20:53:35.926Z,1.35
2022-08-11T20:56:28.707Z,1.27
2022-08-11T20:59:21.798Z,5.15
2022-08-11T21:05:19.386Z,1.33
2022-08-11T21:08:09.595Z,1.73
2022-08-11T21:11:00.614Z,3.90
2022-08-11T21:13:51.432Z,1.75
2022-08-11T21:16:47.652Z,1.98
2022-08-11T21:20:00.246Z,5.13
2022-08-11T21:22:59.028Z,2.45
2022-08-11T21:26:03.754Z,2.72
2022-08-11T21:28:50.437Z,2.67
2022-08-11T21:31:38.359Z,2.58
2022-08-11T21:34:27.182Z,2.78
2022-08-11T21:37:12.762Z,4.97
2022-08-11T21:39:59.032Z,5.88
2022-08-11T21:42:47.435Z,2.28
2022-08-11T21:45:32.964Z,2.70
2022-08-11T21:48:20.408Z,2.13
2022-08-11T21:51:05.885Z,4.40
2022-08-11T21:53:52.624Z,4.25
2022-08-11T21:56:38.438Z,2.00
2022-08-11T21:59:25.163Z,4.43
2022-08-11T22:02:12.903Z,1.50
2022-08-11T22:05:03.683Z,4.10
2022-08-11T22:07:51.405Z,5.07
2022-08-11T22:10:42.427Z,4.93
2022-08-11T22:13:31.220Z,1.80
2022-08-11T22:16:17.854Z,4.47
2022-08-11T22:19:08.589Z,5.45
2022-08-11T22:22:01.442Z,5.55
2022-08-11T22:24:50.596Z,2.92
2022-08-11T22:27:35.852Z,3.05
2022-08-11T22:30:21.133Z,3.20
2022-08-11T22:33:07.079Z,9.57
2022-08-11T22:35:54.318Z,2.20
2022-08-11T22:38:40.633Z,4.03
2022-08-11T22:41:25.844Z,3.05
2022-08-11T22:44:11.405Z,3.95
2022-08-11T22:46:56.512Z,4.68
2022-08-11T22:49:57.883Z,3.75
2022-08-11T22:52:46.266Z,4.05
2022-08-11T22:55:32.531Z,5.00
2022-08-11T22:58:17.846Z,3.80
2022-08-11T23:01:04.148Z,4.63
2022-08-11T23:03:51.061Z,4.22
2022-08-11T23:06:38.477Z,3.90
2022-08-11T23:09:25.241Z,3.13
2022-08-11T23:12:11.771Z,1.98
2022-08-11T23:14:58.956Z,3.63
2022-08-11T23:17:45.635Z,3.95
2022-08-11T23:20:41.654Z,5.55
2022-08-11T23:23:32.739Z,2.92
2022-08-11T23:26:18.635Z,4.90
2022-08-11T23:29:05.171Z,2.53
2022-08-11T23:31:53.948Z,5.00
2022-08-11T23:35:03.430Z,3.35
2022-08-11T23:37:51.181Z,3.58
2022-08-11T23:40:36.701Z,3.05
2022-08-11T23:43:22.972Z,4.30
2022-08-11T23:46:08.768Z,6.65
2022-08-11T23:48:56.023Z,4.88
2022-08-11T23:51:41.808Z,3.78
2022-08-11T23:54:28.486Z,6.47
2022-08-11T23:57:14.385Z,5.72
2022-08-11T23:59:59.722Z,5.07
